Stowe, Vermont
Current Conditions -  °F | °C
As of 1:54 AM on Saturday 25 Oct 2014 (Local Time) from KMVL Reporting Station
Moderate Fog Moderate Fog  
Wind Chill: 33°   Ceiling: 100
Heat Index: 33°   Visibility: 0.25mi
Dew Point: 31°   Wind: 0mph
Humidity: 92%   Direction: NA
Pressure: 29.8"   Gusts: NA
Location:  44.47°N, 72.68°W
Report Text: KMVL 250554Z AUTO 00000KT 1/4SM FG VV001 01/M01 A2980 RMK AO2 SLP098 T00061006 10072 20006 56011
Loading
Personal Weather Stations






























Interactive Weather Map
Tropical Storm Tracking
New forecast layout! Learn more

10-Day Weather Forecast

Advertisements
Track Severe Weather on mobile